createdAt,value
2022-11-14T00:01:30.525Z,40.50
2022-11-14T00:03:58.633Z,39.10
2022-11-14T00:06:26.662Z,39.95
2022-11-14T00:08:56.054Z,35.67
2022-11-14T00:11:24.053Z,44.50
2022-11-14T00:13:52.076Z,39.67
2022-11-14T00:16:20.057Z,35.63
2022-11-14T00:18:48.092Z,40.28
2022-11-14T00:21:16.205Z,41.17
2022-11-14T00:23:44.239Z,41.78
2022-11-14T00:26:13.642Z,41.70
2022-11-14T00:28:41.632Z,34.10
2022-11-14T00:31:10.790Z,36.72
2022-11-14T00:33:39.467Z,40.03
2022-11-14T00:36:07.995Z,40.42
2022-11-14T00:38:36.001Z,43.22
2022-11-14T00:41:04.017Z,44.28
2022-11-14T00:43:33.491Z,35.90
2022-11-14T00:46:01.491Z,40.55
2022-11-14T00:48:29.725Z,38.97
2022-11-14T00:50:57.948Z,44.08
2022-11-14T00:53:25.949Z,42.10
2022-11-14T00:55:54.047Z,45.28
2022-11-14T00:58:22.028Z,50.72
2022-11-14T01:00:51.635Z,49.92
2022-11-14T01:03:19.825Z,42.00
2022-11-14T01:05:51.352Z,50.30
2022-11-14T01:08:20.938Z,45.35
2022-11-14T01:10:50.900Z,48.00
2022-11-14T01:13:19.946Z,47.45
2022-11-14T01:15:49.986Z,42.53
2022-11-14T01:18:21.422Z,49.03
2022-11-14T01:20:50.507Z,48.70
2022-11-14T01:23:18.781Z,52.05
2022-11-14T01:25:46.984Z,46.50
2022-11-14T01:28:17.993Z,51.00
2022-11-14T01:30:46.701Z,49.70
2022-11-14T01:33:14.734Z,50.22
2022-11-14T01:35:44.146Z,47.05
2022-11-14T01:38:14.873Z,49.92
2022-11-14T01:40:44.029Z,49.25
2022-11-14T01:43:36.352Z,47.90
2022-11-14T01:46:05.949Z,52.47
2022-11-14T01:48:41.243Z,48.58
2022-11-14T01:51:21.129Z,46.25
2022-11-14T01:53:52.189Z,53.42
2022-11-14T01:56:25.570Z,47.75
2022-11-14T01:59:01.816Z,50.88
2022-11-14T02:01:33.867Z,51.15
2022-11-14T02:04:06.455Z,47.63
2022-11-14T02:06:37.745Z,48.20
2022-11-14T02:09:07.764Z,48.45
2022-11-14T02:11:39.846Z,56.50
2022-11-14T02:14:08.569Z,51.85
2022-11-14T02:16:37.032Z,51.65
2022-11-14T02:19:06.578Z,45.40
2022-11-14T02:21:36.109Z,52.85
2022-11-14T02:24:04.123Z,55.25
2022-11-14T02:26:36.655Z,57.60
2022-11-14T02:31:32.775Z,47.28
2022-11-14T02:34:00.829Z,52.30
2022-11-14T02:36:28.949Z,54.95
2022-11-14T02:38:58.367Z,53.83
2022-11-14T02:41:26.464Z,60.28
2022-11-14T02:43:54.480Z,54.20
2022-11-14T02:46:22.516Z,55.78
2022-11-14T02:48:50.527Z,50.28
2022-11-14T02:51:18.525Z,60.00
2022-11-14T02:53:46.618Z,59.67
2022-11-14T02:56:16.062Z,56.45
2022-11-14T02:58:44.167Z,52.72
2022-11-14T03:01:20.998Z,52.38
2022-11-14T03:03:49.788Z,52.03
2022-11-14T03:06:17.904Z,56.92
2022-11-14T03:08:45.984Z,57.38
2022-11-14T03:11:15.454Z,52.92
2022-11-14T03:13:43.524Z,46.08
2022-11-14T03:16:13.476Z,47.67
2022-11-14T03:18:41.841Z,44.58
2022-11-14T03:21:11.941Z,45.47
2022-11-14T03:23:40.011Z,47.08
2022-11-14T03:26:10.591Z,43.95
2022-11-14T03:28:40.820Z,44.33
2022-11-14T03:31:10.398Z,44.35
2022-11-14T03:33:38.643Z,47.70
2022-11-14T03:36:07.942Z,48.08
2022-11-14T03:38:36.348Z,42.33
2022-11-14T03:41:04.446Z,42.35
2022-11-14T03:43:34.156Z,39.13
2022-11-14T03:46:04.525Z,38.83
2022-11-14T03:48:33.019Z,37.83
2022-11-14T03:51:01.177Z,37.70
2022-11-14T03:53:29.523Z,38.78
2022-11-14T03:55:57.548Z,45.85
2022-11-14T03:58:25.605Z,36.92
2022-11-14T04:00:55.940Z,42.05
2022-11-14T04:03:26.053Z,37.60
2022-11-14T04:05:54.116Z,38.75
2022-11-14T04:08:22.142Z,36.17
2022-11-14T04:10:50.708Z,38.30
2022-11-14T04:13:18.776Z,35.95
2022-11-14T04:15:46.742Z,37.97
2022-11-14T04:18:14.727Z,35.55
2022-11-14T04:20:44.109Z,35.95
2022-11-14T04:23:12.106Z,39.65
2022-11-14T04:25:40.115Z,39.08
2022-11-14T04:28:08.152Z,43.05
2022-11-14T04:30:37.522Z,43.20
2022-11-14T04:33:05.800Z,40.97
2022-11-14T04:35:33.800Z,41.85
2022-11-14T04:38:03.187Z,38.88
2022-11-14T04:40:31.314Z,42.25
2022-11-14T04:42:59.383Z,39.53
2022-11-14T04:45:27.501Z,46.58
2022-11-14T04:47:55.584Z,41.88
2022-11-14T04:50:23.746Z,39.67
2022-11-14T04:52:53.701Z,40.33
2022-11-14T04:55:23.140Z,36.83
2022-11-14T04:57:55.404Z,43.60
2022-11-14T05:00:23.747Z,43.38
2022-11-14T05:02:51.808Z,42.45
2022-11-14T05:05:19.855Z,49.35
2022-11-14T05:07:47.858Z,50.65
2022-11-14T05:10:15.871Z,60.83
2022-11-14T05:12:45.415Z,52.92
2022-11-14T05:15:13.487Z,61.65
2022-11-14T05:17:41.619Z,60.30
2022-11-14T05:20:10.594Z,62.83
2022-11-14T05:22:38.945Z,75.45
2022-11-14T05:25:08.143Z,63.92
2022-11-14T05:27:36.451Z,66.53
2022-11-14T05:30:06.634Z,71.25
2022-11-14T05:32:34.625Z,57.30
2022-11-14T05:35:02.907Z,59.85
2022-11-14T05:37:30.881Z,55.67
2022-11-14T05:39:58.960Z,55.13
2022-11-14T05:42:28.603Z,55.70
2022-11-14T05:44:56.719Z,55.10
2022-11-14T05:47:26.432Z,54.70
2022-11-14T05:49:54.521Z,62.00
2022-11-14T05:52:22.618Z,56.10
2022-11-14T05:54:50.611Z,58.08
2022-11-14T05:57:18.709Z,53.65
2022-11-14T05:59:46.662Z,58.17
2022-11-14T06:02:14.867Z,52.83
2022-11-14T06:04:44.378Z,58.95
2022-11-14T06:07:16.235Z,64.45
2022-11-14T06:09:46.898Z,64.97
2022-11-14T06:12:14.890Z,59.85
2022-11-14T06:14:42.846Z,65.22
2022-11-14T06:17:10.938Z,52.38
2022-11-14T06:19:39.016Z,59.13
2022-11-14T06:22:09.526Z,56.55
2022-11-14T06:24:39.130Z,56.22
2022-11-14T06:27:07.125Z,51.17
2022-11-14T06:29:35.758Z,53.15
2022-11-14T06:32:03.912Z,56.17
2022-11-14T06:34:31.859Z,53.78
2022-11-14T06:36:59.903Z,63.83
2022-11-14T06:39:29.280Z,51.65
2022-11-14T06:41:57.353Z,52.58
2022-11-14T06:44:30.640Z,56.00
2022-11-14T06:46:59.143Z,61.13
2022-11-14T06:49:28.008Z,66.68
2022-11-14T06:51:59.247Z,55.20
2022-11-14T06:54:27.458Z,53.13
2022-11-14T06:56:57.041Z,48.28
2022-11-14T06:59:25.003Z,55.45
2022-11-14T07:01:52.987Z,50.53
2022-11-14T07:04:20.995Z,52.03
2022-11-14T07:06:49.031Z,47.63
2022-11-14T07:09:17.556Z,51.45
2022-11-14T07:11:46.961Z,56.40
2022-11-14T07:14:16.432Z,54.47
2022-11-14T07:16:44.408Z,55.72
2022-11-14T07:19:12.695Z,57.50
2022-11-14T07:21:41.473Z,55.60
2022-11-14T07:24:09.590Z,72.78
2022-11-14T07:26:37.586Z,57.42
2022-11-14T07:29:05.705Z,55.28
2022-11-14T07:31:35.098Z,53.08
2022-11-14T07:34:03.063Z,63.45
2022-11-14T07:36:33.643Z,51.00
2022-11-14T07:39:01.631Z,56.85
2022-11-14T07:41:29.673Z,57.88
2022-11-14T07:43:57.721Z,59.40
2022-11-14T07:46:25.688Z,59.83
2022-11-14T07:48:56.118Z,51.97
2022-11-14T07:51:24.101Z,55.22
2022-11-14T07:53:53.324Z,63.45
2022-11-14T07:56:22.337Z,55.65
2022-11-14T07:58:50.338Z,46.72
2022-11-14T08:01:18.761Z,48.25
2022-11-14T08:03:46.962Z,51.13
2022-11-14T08:06:17.749Z,56.30
2022-11-14T08:08:45.766Z,48.65
2022-11-14T08:11:23.051Z,45.22
2022-11-14T08:14:01.934Z,45.33
2022-11-14T08:16:29.932Z,36.90
2022-11-14T08:18:57.944Z,43.15
2022-11-14T08:21:28.553Z,35.35
2022-11-14T08:23:56.623Z,36.92
2022-11-14T08:26:26.306Z,38.70
2022-11-14T08:28:55.999Z,40.78
2022-11-14T08:31:24.318Z,34.67
2022-11-14T08:33:53.307Z,42.05
2022-11-14T08:36:21.602Z,40.78
2022-11-14T08:38:51.765Z,41.80
2022-11-14T08:41:20.268Z,42.33
2022-11-14T08:43:48.255Z,44.40
2022-11-14T08:46:16.437Z,42.45
2022-11-14T08:48:44.425Z,37.30
2022-11-14T08:51:12.476Z,40.63
2022-11-14T08:53:40.572Z,39.78
2022-11-14T08:56:12.838Z,36.92
2022-11-14T08:58:40.847Z,43.08
2022-11-14T09:01:09.240Z,45.50
2022-11-14T09:03:37.507Z,48.85
2022-11-14T09:06:05.752Z,47.55
2022-11-14T09:08:33.923Z,49.33
2022-11-14T09:11:05.875Z,44.17
2022-11-14T09:13:37.263Z,40.83
2022-11-14T09:16:05.534Z,44.38
2022-11-14T09:18:33.755Z,45.17
2022-11-14T09:21:02.872Z,47.33
2022-11-14T09:23:31.444Z,42.42
2022-11-14T09:25:59.821Z,40.15
2022-11-14T09:28:27.835Z,39.70
2022-11-14T09:31:01.590Z,43.13
2022-11-14T09:33:30.766Z,43.40
2022-11-14T09:35:59.412Z,46.40
2022-11-14T09:38:28.253Z,47.05
2022-11-14T09:41:06.620Z,42.70
2022-11-14T09:44:03.195Z,49.92
2022-11-14T09:46:38.902Z,48.20
2022-11-14T09:49:15.115Z,51.55
2022-11-14T09:51:52.069Z,43.17
2022-11-14T09:54:24.223Z,43.80
2022-11-14T09:56:53.351Z,46.17
2022-11-14T09:59:21.476Z,45.50
2022-11-14T10:02:06.374Z,42.72
2022-11-14T10:04:51.104Z,50.75
2022-11-14T10:07:31.245Z,47.10
2022-11-14T10:10:09.246Z,41.03
2022-11-14T10:12:44.704Z,43.28
2022-11-14T10:15:23.649Z,47.85
2022-11-14T10:18:05.521Z,40.22
2022-11-14T10:20:40.249Z,41.65
2022-11-14T10:23:22.261Z,43.80
2022-11-14T10:25:56.775Z,44.33
2022-11-14T10:28:39.882Z,42.60
2022-11-14T10:31:21.171Z,39.22
2022-11-14T10:33:58.979Z,44.83
2022-11-14T10:36:42.211Z,44.03
2022-11-14T10:39:19.087Z,40.95
2022-11-14T10:41:58.077Z,49.47
2022-11-14T10:44:35.592Z,41.17
2022-11-14T10:47:07.761Z,52.00
2022-11-14T10:49:39.031Z,44.03
2022-11-14T10:52:13.840Z,43.97
2022-11-14T10:54:47.072Z,47.08
2022-11-14T10:57:18.552Z,40.90
2022-11-14T10:59:47.445Z,43.70
2022-11-14T11:02:15.689Z,40.60
2022-11-14T11:04:47.178Z,39.85
2022-11-14T11:07:40.086Z,46.92
2022-11-14T11:10:37.585Z,37.67
2022-11-14T11:13:05.682Z,43.03
2022-11-14T11:15:41.917Z,39.80
2022-11-14T11:18:27.989Z,47.78
2022-11-14T11:21:13.111Z,40.70
2022-11-14T11:23:50.814Z,45.70
2022-11-14T11:26:25.309Z,43.20
2022-11-14T11:29:09.014Z,47.78
2022-11-14T11:31:54.727Z,40.35
2022-11-14T11:34:26.488Z,44.75
2022-11-14T11:37:02.729Z,41.00
2022-11-14T11:39:33.381Z,44.67
2022-11-14T11:42:09.797Z,41.92
2022-11-14T11:44:45.799Z,41.67
2022-11-14T11:47:18.193Z,42.47
2022-11-14T11:49:53.425Z,40.05
2022-11-14T11:52:32.359Z,38.90
2022-11-14T11:55:05.025Z,40.03
2022-11-14T12:00:16.133Z,39.45
2022-11-14T12:02:49.997Z,41.47
2022-11-14T12:05:24.986Z,41.55
2022-11-14T12:08:01.518Z,38.42
2022-11-14T12:10:33.573Z,44.92
2022-11-14T12:13:25.943Z,41.75
2022-11-14T12:16:11.666Z,39.72
2022-11-14T12:18:57.265Z,39.92
2022-11-14T12:22:03.976Z,34.33
2022-11-14T12:25:19.917Z,38.97
2022-11-14T12:28:11.873Z,40.92
2022-11-14T12:30:42.756Z,36.42
2022-11-14T12:33:14.570Z,42.85
2022-11-14T12:35:51.481Z,34.60
2022-11-14T12:38:21.168Z,35.17
2022-11-14T12:40:55.400Z,33.97
2022-11-14T12:43:37.230Z,35.95
2022-11-14T12:46:11.651Z,27.90
2022-11-14T12:48:41.200Z,31.83
2022-11-14T12:51:42.348Z,32.17
2022-11-14T12:54:46.260Z,24.90
2022-11-14T12:57:38.494Z,24.48
2022-11-14T13:00:09.940Z,19.63
2022-11-14T13:03:19.882Z,26.83
2022-11-14T13:05:58.420Z,25.15
2022-11-14T13:09:13.976Z,19.67
2022-11-14T13:12:01.904Z,23.40
2022-11-14T13:14:48.899Z,25.80
2022-11-14T13:17:46.366Z,25.98
2022-11-14T13:20:50.310Z,26.38
2022-11-14T13:23:57.059Z,24.67
2022-11-14T13:26:48.593Z,23.75
2022-11-14T13:29:58.560Z,21.05
2022-11-14T13:32:56.045Z,22.50
2022-11-14T13:35:38.403Z,23.45
2022-11-14T13:38:48.332Z,24.38
2022-11-14T13:41:46.903Z,19.83
2022-11-14T13:44:39.270Z,19.63
2022-11-14T13:47:28.358Z,17.23
2022-11-14T13:50:05.353Z,21.38
2022-11-14T13:52:35.307Z,19.73
2022-11-14T13:55:04.683Z,18.58
2022-11-14T13:57:50.584Z,18.27
2022-11-14T14:00:21.197Z,18.15
2022-11-14T14:03:20.205Z,17.88
2022-11-14T14:06:18.451Z,21.35
2022-11-14T14:09:06.701Z,24.10
2022-11-14T14:11:46.157Z,19.00
2022-11-14T14:14:35.153Z,18.77
2022-11-14T14:17:08.875Z,22.63
2022-11-14T14:19:51.807Z,23.77
2022-11-14T14:24:59.380Z,26.33
2022-11-14T14:27:35.269Z,25.30
2022-11-14T14:30:09.762Z,33.50
2022-11-14T14:32:38.119Z,30.08
2022-11-14T14:35:32.579Z,26.45
2022-11-14T14:38:11.097Z,25.63
2022-11-14T14:40:41.877Z,25.52
2022-11-14T14:43:25.103Z,22.70
2022-11-14T14:45:54.603Z,26.90
2022-11-14T14:48:26.821Z,27.25
2022-11-14T14:50:56.788Z,27.75
2022-11-14T14:53:28.100Z,25.30
2022-11-14T14:55:58.302Z,28.30
2022-11-14T14:58:29.832Z,24.27
2022-11-14T15:01:01.072Z,24.58
2022-11-14T15:03:36.948Z,30.23
2022-11-14T15:06:07.798Z,29.27
2022-11-14T15:08:40.065Z,35.15
2022-11-14T15:11:09.000Z,27.60
2022-11-14T15:13:38.860Z,29.33
2022-11-14T15:16:09.382Z,30.90
2022-11-14T15:18:38.115Z,28.90
2022-11-14T15:21:12.076Z,27.38
2022-11-14T15:23:42.423Z,33.00
2022-11-14T15:26:16.861Z,34.10
2022-11-14T15:28:45.342Z,32.58
2022-11-14T15:31:22.056Z,32.85
2022-11-14T15:34:03.488Z,30.73
2022-11-14T15:36:31.685Z,32.08
2022-11-14T15:39:03.661Z,32.08
2022-11-14T15:41:32.614Z,33.72
2022-11-14T15:44:03.419Z,32.80
2022-11-14T15:46:41.264Z,39.95
2022-11-14T15:49:11.581Z,34.97
2022-11-14T15:51:43.541Z,33.60
2022-11-14T15:54:28.197Z,35.33
2022-11-14T15:56:58.010Z,30.02
2022-11-14T15:59:27.122Z,30.80
2022-11-14T16:01:59.775Z,33.05
2022-11-14T16:04:31.811Z,50.55
2022-11-14T16:07:00.440Z,33.20
2022-11-14T16:09:29.861Z,31.48
2022-11-14T16:11:57.893Z,32.33
2022-11-14T16:14:25.878Z,30.75
2022-11-14T16:16:53.902Z,35.72
2022-11-14T16:19:22.238Z,33.15
2022-11-14T16:21:50.387Z,37.03
2022-11-14T16:24:20.359Z,35.58
2022-11-14T16:26:50.901Z,37.80
2022-11-14T16:29:18.952Z,37.33
2022-11-14T16:31:47.376Z,44.22
2022-11-14T16:34:19.747Z,43.67
2022-11-14T16:36:48.799Z,43.60
2022-11-14T16:39:17.112Z,49.03
2022-11-14T16:41:45.175Z,36.80
2022-11-14T16:44:18.911Z,45.88
2022-11-14T16:46:47.896Z,40.00
2022-11-14T16:49:17.448Z,44.40
2022-11-14T16:51:48.205Z,50.67
2022-11-14T16:54:17.693Z,58.60
2022-11-14T16:56:45.811Z,43.67
2022-11-14T16:59:14.282Z,45.22
2022-11-14T17:01:44.408Z,48.95
2022-11-14T17:04:12.791Z,50.22
2022-11-14T17:06:41.452Z,50.00
2022-11-14T17:09:09.605Z,49.58
2022-11-14T17:11:37.689Z,45.30
2022-11-14T17:14:12.309Z,42.10
2022-11-14T17:16:49.448Z,41.47
2022-11-14T17:19:26.207Z,37.13
2022-11-14T17:21:54.278Z,44.35
2022-11-14T17:24:25.035Z,43.83
2022-11-14T17:26:56.772Z,48.00
2022-11-14T17:29:24.791Z,44.92
2022-11-14T17:31:52.984Z,50.70
2022-11-14T17:34:22.904Z,55.92
2022-11-14T17:36:51.876Z,66.72
2022-11-14T17:39:20.332Z,48.97
2022-11-14T17:41:48.491Z,49.78
2022-11-14T17:44:16.732Z,49.75
2022-11-14T17:46:45.324Z,46.75
2022-11-14T17:49:13.419Z,52.22
2022-11-14T17:51:43.599Z,47.13
2022-11-14T17:54:11.956Z,44.60
2022-11-14T17:56:46.484Z,46.72
2022-11-14T17:59:16.700Z,44.30
2022-11-14T18:01:44.901Z,48.22
2022-11-14T18:04:13.492Z,48.63
2022-11-14T18:06:42.993Z,51.50
2022-11-14T18:09:14.468Z,53.17
2022-11-14T18:11:43.255Z,48.45
2022-11-14T18:14:12.320Z,47.20
2022-11-14T18:17:05.876Z,48.95
2022-11-14T18:19:29.416Z,44.55
2022-11-14T18:21:59.336Z,52.58
2022-11-14T18:24:27.410Z,51.92
2022-11-14T18:26:55.964Z,53.03
2022-11-14T18:29:24.119Z,49.13
2022-11-14T18:31:52.482Z,53.88
2022-11-14T18:34:24.520Z,52.05
2022-11-14T18:36:53.101Z,53.17
2022-11-14T18:39:22.799Z,54.35
2022-11-14T18:41:50.992Z,48.95
2022-11-14T18:44:21.460Z,60.58
2022-11-14T18:46:49.884Z,53.80
2022-11-14T18:49:18.554Z,59.78
2022-11-14T18:51:47.022Z,56.72
2022-11-14T18:54:18.019Z,60.83
2022-11-14T18:56:47.853Z,62.70
2022-11-14T18:59:16.358Z,63.22
2022-11-14T19:01:44.969Z,59.33
2022-11-14T19:04:14.444Z,62.67
2022-11-14T19:06:42.928Z,67.10
2022-11-14T19:09:15.186Z,63.38
2022-11-14T19:12:01.346Z,60.30
2022-11-14T19:14:31.140Z,58.30
2022-11-14T19:17:00.059Z,61.13
2022-11-14T19:19:28.645Z,57.00
2022-11-14T19:21:59.044Z,63.38
2022-11-14T19:24:27.519Z,62.80
2022-11-14T19:26:57.471Z,67.07
2022-11-14T19:29:25.876Z,60.15
2022-11-14T19:31:55.745Z,61.55
2022-11-14T19:34:24.179Z,74.38
2022-11-14T19:37:00.043Z,63.88
2022-11-14T19:39:29.497Z,61.92
2022-11-14T19:41:58.536Z,72.75
2022-11-14T19:44:27.079Z,66.70
2022-11-14T19:46:56.581Z,64.15
2022-11-14T19:49:24.948Z,56.42
2022-11-14T19:51:53.604Z,122.63
2022-11-14T19:54:22.651Z,133.93
2022-11-14T19:56:52.360Z,79.65
2022-11-14T19:59:24.439Z,62.38
2022-11-14T20:01:55.870Z,61.45
2022-11-14T20:04:26.606Z,60.83
2022-11-14T20:06:58.169Z,62.22
2022-11-14T20:09:29.460Z,63.90
2022-11-14T20:11:58.064Z,61.70
2022-11-14T20:14:26.605Z,58.05
2022-11-14T20:16:54.686Z,55.50
2022-11-14T20:19:23.117Z,51.88
2022-11-14T20:21:56.251Z,62.13
2022-11-14T20:24:26.976Z,63.17
2022-11-14T20:26:57.896Z,63.50
2022-11-14T20:29:26.170Z,65.32
2022-11-14T20:31:54.253Z,69.28
2022-11-14T20:34:23.484Z,59.50
2022-11-14T20:39:42.137Z,60.95
2022-11-14T20:42:10.612Z,61.72
2022-11-14T20:44:40.189Z,61.15
2022-11-14T20:47:10.964Z,66.70
2022-11-14T20:49:42.977Z,58.35
2022-11-14T20:52:15.705Z,65.82
2022-11-14T20:57:13.719Z,58.47
2022-11-14T20:59:41.843Z,60.45
2022-11-14T21:02:12.616Z,65.22
2022-11-14T21:04:40.740Z,70.97
2022-11-14T21:07:10.524Z,68.82
2022-11-14T21:09:38.695Z,75.05
2022-11-14T21:12:08.409Z,68.63
2022-11-14T21:14:36.538Z,70.65
2022-11-14T21:17:04.846Z,67.03
2022-11-14T21:19:33.297Z,63.88
2022-11-14T21:22:04.424Z,69.22
2022-11-14T21:24:35.658Z,70.30
2022-11-14T21:27:13.146Z,72.40
2022-11-14T21:29:41.721Z,77.20
2022-11-14T21:32:09.865Z,75.88
2022-11-14T21:34:37.929Z,78.20
2022-11-14T21:37:05.933Z,78.53
2022-11-14T21:39:36.329Z,79.22
2022-11-14T21:42:07.347Z,74.43
2022-11-14T21:44:36.803Z,83.85
2022-11-14T21:47:04.908Z,79.07
2022-11-14T21:49:33.109Z,79.05
2022-11-14T21:52:01.197Z,85.75
2022-11-14T21:54:29.513Z,83.68
2022-11-14T21:56:57.483Z,73.85
2022-11-14T21:59:27.695Z,70.72
2022-11-14T22:02:14.570Z,72.43
2022-11-14T22:04:42.597Z,76.55
2022-11-14T22:07:10.672Z,69.03
2022-11-14T22:09:44.940Z,70.45
2022-11-14T22:12:13.468Z,74.38
2022-11-14T22:14:42.939Z,80.82
2022-11-14T22:17:12.493Z,67.20
2022-11-14T22:19:42.384Z,69.05
2022-11-14T22:22:10.790Z,67.03
2022-11-14T22:24:39.053Z,62.75
2022-11-14T22:27:07.573Z,58.80
2022-11-14T22:29:36.010Z,61.65
2022-11-14T22:32:04.653Z,59.83
2022-11-14T22:34:34.202Z,63.67
2022-11-14T22:37:04.713Z,55.58
2022-11-14T22:39:32.794Z,53.90
2022-11-14T22:42:00.788Z,58.22
2022-11-14T22:44:28.763Z,57.97
2022-11-14T22:46:56.790Z,48.05
2022-11-14T22:49:24.758Z,46.13
2022-11-14T22:51:54.102Z,40.92
2022-11-14T22:54:22.121Z,43.53
2022-11-14T22:56:50.086Z,48.75
2022-11-14T22:59:18.059Z,52.08
2022-11-14T23:01:46.115Z,47.03
2022-11-14T23:04:14.412Z,53.10
2022-11-14T23:06:42.684Z,53.53
2022-11-14T23:09:12.361Z,56.28
2022-11-14T23:11:40.797Z,51.53
2022-11-14T23:14:09.294Z,48.92
2022-11-14T23:16:37.592Z,53.33
2022-11-14T23:19:06.533Z,46.05
2022-11-14T23:21:36.966Z,43.10
2022-11-14T23:24:08.563Z,45.92
2022-11-14T23:26:38.287Z,43.20
2022-11-14T23:29:06.506Z,43.33
2022-11-14T23:31:34.764Z,56.85
2022-11-14T23:34:02.940Z,62.70
2022-11-14T23:36:31.260Z,75.53
2022-11-14T23:38:59.623Z,67.30
2022-11-14T23:41:27.901Z,70.07
2022-11-14T23:43:57.627Z,61.22
2022-11-14T23:46:26.873Z,51.63
2022-11-14T23:48:55.080Z,48.15
2022-11-14T23:51:23.365Z,45.88
2022-11-14T23:53:52.154Z,46.20
2022-11-14T23:56:20.474Z,46.10
2022-11-14T23:58:48.909Z,47.97
